Time;durP1;ratioP1;P1;durP2;ratioP2;P2;SDS_P1;SDS_P2;PMS_P1;PMS_P2;Temp;Humidity;BMP_temperature;BMP_pressure;BME280_temperature;BME280_humidity;BME280_pressure;Samples;Min_cycle;Max_cycle;Signal;HPM_P1;HPM_P2
2021/11/13 00:01:48;;;;;;;59.77;32.00;;;5.90;90.50;;;;;;5057530;28;20244;-87
2021/11/13 00:04:13;;;;;;;66.30;34.83;;;5.90;90.60;;;;;;5057621;28;20522;-89
2021/11/13 00:06:39;;;;;;;57.40;30.73;;;5.90;90.60;;;;;;5056952;28;20180;-86
2021/11/13 00:09:06;;;;;;;56.80;30.90;;;5.80;90.50;;;;;;5039904;28;20175;-87
2021/11/13 00:11:32;;;;;;;60.13;32.53;;;5.90;90.60;;;;;;5039363;28;20222;-86
2021/11/13 00:14:02;;;;;;;55.00;30.93;;;5.90;90.60;;;;;;5056625;28;20168;-87
2021/11/13 00:16:31;;;;;;;58.83;33.17;;;5.90;90.60;;;;;;5055492;28;20580;-87
2021/11/13 00:18:57;;;;;;;57.13;32.03;;;5.90;90.70;;;;;;5038763;28;20199;-86
2021/11/13 00:21:23;;;;;;;58.83;33.07;;;5.90;90.70;;;;;;5037714;28;20183;-87
2021/11/13 00:23:49;;;;;;;59.47;32.83;;;5.90;90.60;;;;;;5038491;28;20194;-86
2021/11/13 00:26:14;;;;;;;61.97;32.93;;;5.90;90.70;;;;;;5038921;28;20202;-87
2021/11/13 00:28:40;;;;;;;59.73;31.77;;;5.90;90.70;;;;;;5057338;28;20180;-88
2021/11/13 00:31:06;;;;;;;64.37;33.27;;;5.90;90.80;;;;;;5056963;28;20195;-88
2021/11/13 00:33:31;;;;;;;61.53;33.17;;;5.90;90.70;;;;;;5056892;28;20192;-87
2021/11/13 00:35:57;;;;;;;65.60;33.23;;;5.90;90.60;;;;;;5056754;28;20175;-86
2021/11/13 00:38:23;;;;;;;59.20;32.50;;;5.90;90.60;;;;;;5038563;28;20334;-87
2021/11/13 00:40:48;;;;;;;61.50;33.03;;;5.90;90.50;;;;;;5038849;28;20183;-87
2021/11/13 00:43:15;;;;;;;58.97;32.53;;;6.00;90.50;;;;;;5056430;28;20184;-87
2021/11/13 00:45:40;;;;;;;58.83;32.57;;;5.90;90.50;;;;;;5056468;28;20172;-87
2021/11/13 00:48:07;;;;;;;58.10;31.87;;;5.90;90.60;;;;;;5056302;28;20172;-87
2021/11/13 00:50:33;;;;;;;55.37;31.10;;;5.90;90.50;;;;;;5056009;28;20251;-87
2021/11/13 00:52:59;;;;;;;59.13;32.10;;;5.90;90.50;;;;;;5038289;28;20329;-87
2021/11/13 00:55:25;;;;;;;55.90;32.07;;;5.80;90.50;;;;;;5037909;28;20566;-87
2021/11/13 00:57:50;;;;;;;56.47;31.93;;;5.80;90.40;;;;;;5037905;28;20184;-87
2021/11/13 01:00:18;;;;;;;58.00;31.17;;;5.80;90.60;;;;;;5038275;28;20172;-87
2021/11/13 01:02:44;;;;;;;56.87;31.17;;;5.80;90.50;;;;;;5038216;28;20653;-88
2021/11/13 01:05:10;;;;;;;59.90;31.00;;;5.80;90.60;;;;;;5055995;28;20221;-87
2021/11/13 01:07:36;;;;;;;56.60;30.80;;;5.80;90.60;;;;;;5055934;28;20571;-87
2021/11/13 01:10:05;;;;;;;55.57;32.43;;;5.80;90.50;;;;;;5055680;28;20665;-87
2021/11/13 01:12:31;;;;;;;59.47;32.43;;;5.80;90.50;;;;;;5037421;28;20763;-89
2021/11/13 01:14:57;;;;;;;59.83;32.30;;;5.80;90.50;;;;;;5037748;28;20176;-88
2021/11/13 01:17:23;;;;;;;59.90;31.13;;;5.80;90.50;;;;;;5037778;28;20267;-87
2021/11/13 01:19:49;;;;;;;55.90;31.40;;;5.80;90.60;;;;;;5037629;28;20207;-86
2021/11/13 01:22:15;;;;;;;56.63;33.03;;;5.80;90.60;;;;;;5055414;28;20211;-86
2021/11/13 01:24:41;;;;;;;60.20;31.83;;;5.80;90.60;;;;;;5055470;28;20548;-87
2021/11/13 01:27:07;;;;;;;59.43;31.90;;;5.80;90.40;;;;;;5055620;28;20176;-87
2021/11/13 01:29:33;;;;;;;54.70;30.87;;;5.80;90.50;;;;;;5037326;28;20183;-87
2021/11/13 01:31:59;;;;;;;62.83;33.03;;;5.80;90.60;;;;;;5036903;28;20215;-86
2021/11/13 01:34:25;;;;;;;56.83;31.60;;;5.80;90.60;;;;;;5037037;28;20694;-86
2021/11/13 01:36:50;;;;;;;58.37;31.23;;;5.80;90.60;;;;;;5055018;28;20168;-87
2021/11/13 01:39:16;;;;;;;58.07;32.37;;;5.90;90.70;;;;;;5055016;28;20199;-87
2021/11/13 01:41:42;;;;;;;57.10;31.97;;;5.90;90.70;;;;;;5036862;28;20245;-87
2021/11/13 01:44:09;;;;;;;53.17;29.40;;;5.90;90.70;;;;;;5036863;28;20622;-86
2021/11/13 01:46:36;;;;;;;54.30;29.77;;;5.90;90.70;;;;;;5054802;28;20175;-86
2021/11/13 01:49:03;;;;;;;55.73;32.50;;;6.00;90.70;;;;;;5036682;28;20178;-86
2021/11/13 01:51:32;;;;;;;54.93;30.80;;;6.00;90.50;;;;;;5036790;28;20287;-89
2021/11/13 01:54:04;;;;;;;50.60;29.37;;;6.00;90.50;;;;;;5036532;28;20270;-88
2021/11/13 01:56:30;;;;;;;46.37;29.43;;;6.00;90.50;;;;;;5036376;28;20160;-86
2021/11/13 01:58:59;;;;;;;55.27;29.90;;;6.00;90.30;;;;;;5036448;28;20267;-88
2021/11/13 02:01:25;;;;;;;51.77;29.93;;;6.00;90.20;;;;;;5036587;28;20234;-87
2021/11/13 02:03:52;;;;;;;51.53;28.27;;;6.00;90.20;;;;;;5036945;28;20180;-89
2021/11/13 02:06:19;;;;;;;52.00;29.90;;;6.10;90.20;;;;;;5054670;28;20172;-87
2021/11/13 02:08:46;;;;;;;49.50;29.57;;;6.20;90.00;;;;;;5054567;28;20199;-89
2021/11/13 02:11:16;;;;;;;47.93;28.40;;;6.20;89.90;;;;;;5054354;28;20192;-85
2021/11/13 02:13:42;;;;;;;44.17;28.30;;;6.20;89.70;;;;;;5036783;28;20546;-88
2021/11/13 02:16:09;;;;;;;45.47;29.40;;;6.20;89.50;;;;;;5054233;28;20172;-87
2021/11/13 02:18:39;;;;;;;47.20;29.47;;;6.20;89.50;;;;;;5054375;28;20164;-88
2021/11/13 02:21:07;;;;;;;48.27;28.97;;;6.20;89.60;;;;;;5036206;28;20651;-89
2021/11/13 02:23:33;;;;;;;44.17;26.17;;;6.20;89.30;;;;;;5053922;28;20803;-86
2021/11/13 02:25:59;;;;;;;49.07;28.70;;;6.20;89.10;;;;;;5053928;28;20552;-88
2021/11/13 02:28:26;;;;;;;41.77;27.53;;;6.20;89.20;;;;;;5053734;28;20168;-87
2021/11/13 02:30:55;;;;;;;45.37;27.27;;;6.20;89.40;;;;;;5035987;28;20206;-87
2021/11/13 02:33:21;;;;;;;42.33;28.13;;;6.20;89.20;;;;;;5035869;28;20199;-87
2021/11/13 02:35:49;;;;;;;45.43;28.93;;;6.20;89.40;;;;;;5035955;28;20179;-88
2021/11/13 02:38:20;;;;;;;44.03;27.53;;;6.30;89.40;;;;;;5035883;28;20172;-89
2021/11/13 02:40:55;;;;;;;42.07;27.90;;;6.30;89.40;;;;;;5054133;28;20183;-87
2021/11/13 02:43:21;;;;;;;39.53;26.47;;;6.20;89.30;;;;;;5035853;28;20195;-87
2021/11/13 02:45:47;;;;;;;41.20;27.50;;;6.30;89.30;;;;;;5053997;28;20232;-89
2021/11/13 02:48:13;;;;;;;45.03;27.17;;;6.30;89.30;;;;;;5035710;28;20181;-87
2021/11/13 02:50:42;;;;;;;45.03;27.53;;;6.30;89.10;;;;;;5035645;28;20176;-86
2021/11/13 02:53:21;;;;;;;42.20;27.77;;;6.30;89.20;;;;;;5035690;28;20257;-86
2021/11/13 02:55:48;;;;;;;44.50;27.03;;;6.30;89.40;;;;;;5036104;28;20168;-88
2021/11/13 02:58:14;;;;;;;41.13;26.03;;;6.30;89.30;;;;;;5053607;28;20165;-87
2021/11/13 03:00:42;;;;;;;45.33;28.23;;;6.30;89.50;;;;;;5036025;28;20183;-87
2021/11/13 03:03:08;;;;;;;40.70;26.80;;;6.30;89.40;;;;;;5035505;28;20196;-87
2021/11/13 03:05:48;;;;;;;41.80;27.37;;;6.30;89.40;;;;;;5053848;28;20259;-87
2021/11/13 03:08:21;;;;;;;43.27;28.47;;;6.40;89.20;;;;;;5054026;28;20184;-87
2021/11/13 03:10:47;;;;;;;43.13;27.10;;;6.40;89.00;;;;;;5056703;28;20569;-86
2021/11/13 03:13:13;;;;;;;40.87;27.67;;;6.40;89.00;;;;;;5057129;28;20199;-87
2021/11/13 03:15:39;;;;;;;43.63;29.33;;;6.40;89.10;;;;;;5039405;28;20179;-87
2021/11/13 03:18:04;;;;;;;40.63;26.90;;;6.40;89.00;;;;;;5056798;28;20207;-88
2021/11/13 03:20:30;;;;;;;35.90;25.67;;;6.40;88.90;;;;;;5056855;28;20191;-87
2021/11/13 03:23:01;;;;;;;39.73;27.23;;;6.40;89.10;;;;;;5038653;28;20220;-86
2021/11/13 03:25:39;;;;;;;39.57;26.07;;;6.40;89.10;;;;;;5056829;28;20165;-87
2021/11/13 03:28:11;;;;;;;40.80;26.33;;;6.40;89.20;;;;;;5038731;28;20172;-87
2021/11/13 03:30:39;;;;;;;42.10;27.43;;;6.40;89.30;;;;;;5038853;28;20202;-87
2021/11/13 03:33:05;;;;;;;38.70;25.43;;;6.40;89.40;;;;;;5038685;28;20701;-87
2021/11/13 03:35:33;;;;;;;42.60;27.63;;;6.40;89.40;;;;;;5038524;28;20225;-88
2021/11/13 03:38:06;;;;;;;39.20;27.57;;;6.30;89.30;;;;;;5038473;28;20168;-87
2021/11/13 03:40:33;;;;;;;42.83;27.60;;;6.40;89.50;;;;;;5038572;28;20174;-87
2021/11/13 03:42:59;;;;;;;39.97;27.23;;;6.40;89.60;;;;;;5056329;28;20278;-87
2021/11/13 03:45:25;;;;;;;37.43;26.10;;;6.40;89.40;;;;;;5038095;28;20637;-87
2021/11/13 03:47:50;;;;;;;37.57;26.40;;;6.40;89.50;;;;;;5037998;28;20180;-87
2021/11/13 03:50:16;;;;;;;35.03;25.97;;;6.40;89.40;;;;;;5056106;28;20640;-87
2021/11/13 03:52:42;;;;;;;40.70;27.57;;;6.40;89.30;;;;;;5037805;28;20223;-88
2021/11/13 03:55:08;;;;;;;41.47;26.90;;;6.50;89.40;;;;;;5037742;28;20523;-87
2021/11/13 03:57:34;;;;;;;38.03;26.40;;;6.50;89.30;;;;;;5037760;28;20176;-87
2021/11/13 03:59:59;;;;;;;40.83;26.77;;;6.50;89.40;;;;;;5037590;28;20172;-87
2021/11/13 04:02:25;;;;;;;39.10;25.57;;;6.40;89.50;;;;;;5037583;28;20664;-86
2021/11/13 04:04:51;;;;;;;36.67;27.03;;;6.40;89.70;;;;;;5037805;28;20187;-86
2021/11/13 04:07:16;;;;;;;37.60;26.27;;;6.30;89.90;;;;;;5037836;28;20207;-87
2021/11/13 04:09:42;;;;;;;43.77;28.20;;;6.40;90.10;;;;;;5037526;28;20266;-86
2021/11/13 04:12:10;;;;;;;40.53;27.43;;;6.30;90.20;;;;;;5037444;28;20298;-86
2021/11/13 04:14:39;;;;;;;40.53;28.10;;;6.30;90.40;;;;;;5037349;28;20180;-86
2021/11/13 04:17:04;;;;;;;44.13;27.13;;;6.30;90.60;;;;;;5055520;28;20566;-86
2021/11/13 04:19:30;;;;;;;41.33;26.83;;;6.30;90.70;;;;;;5055192;28;20218;-87
2021/11/13 04:21:56;;;;;;;38.60;27.23;;;6.30;90.80;;;;;;5054844;28;20299;-86
2021/11/13 04:24:22;;;;;;;37.00;27.53;;;6.30;90.90;;;;;;5037208;28;20274;-87
2021/11/13 04:26:48;;;;;;;42.87;29.40;;;6.30;90.90;;;;;;5055126;28;20180;-87
2021/11/13 04:29:14;;;;;;;41.23;29.00;;;6.30;91.00;;;;;;5037321;28;20176;-87
2021/11/13 04:31:40;;;;;;;41.03;28.47;;;6.40;91.00;;;;;;5037032;28;20584;-87
2021/11/13 04:34:08;;;;;;;39.17;28.00;;;6.40;91.10;;;;;;5037067;28;20234;-87
2021/11/13 04:36:38;;;;;;;39.40;27.87;;;6.40;91.00;;;;;;5037062;28;20225;-87
2021/11/13 04:39:06;;;;;;;38.87;26.47;;;6.40;91.10;;;;;;5054775;28;20645;-87
2021/11/13 04:41:34;;;;;;;42.40;26.97;;;6.40;91.10;;;;;;5036784;28;20235;-87
2021/11/13 04:44:00;;;;;;;37.50;27.33;;;6.40;91.20;;;;;;5054628;28;20246;-87
2021/11/13 04:46:25;;;;;;;36.67;26.53;;;6.40;91.20;;;;;;5036819;28;20648;-87
2021/11/13 04:48:51;;;;;;;37.43;26.43;;;6.50;91.20;;;;;;5036803;28;20553;-87
2021/11/13 04:51:17;;;;;;;38.43;27.50;;;6.40;91.20;;;;;;5054470;28;20192;-87
2021/11/13 04:53:43;;;;;;;39.50;27.23;;;6.50;91.40;;;;;;5054545;28;20171;-87
2021/11/13 04:56:09;;;;;;;39.83;28.97;;;6.50;91.40;;;;;;5054846;28;20190;-87
2021/11/13 04:58:35;;;;;;;37.57;26.67;;;6.50;91.50;;;;;;5036412;28;20207;-87
2021/11/13 05:01:01;;;;;;;37.90;28.07;;;6.40;91.50;;;;;;5054490;28;20168;-87
2021/11/13 05:03:26;;;;;;;40.60;28.30;;;6.40;91.50;;;;;;5036427;28;20192;-86
2021/11/13 05:05:52;;;;;;;39.93;26.63;;;6.50;91.60;;;;;;5036326;28;20178;-87
2021/11/13 05:08:18;;;;;;;44.73;28.97;;;6.50;91.50;;;;;;5054224;28;20168;-87
2021/11/13 05:10:44;;;;;;;45.13;28.63;;;6.50;91.50;;;;;;5036566;28;20230;-87
2021/11/13 05:13:09;;;;;;;42.70;27.83;;;6.50;91.60;;;;;;5036054;28;20208;-87
2021/11/13 05:15:35;;;;;;;39.43;27.30;;;6.50;91.60;;;;;;5054187;28;20401;-87
2021/11/13 05:18:01;;;;;;;39.93;27.47;;;6.50;91.50;;;;;;5036246;28;20238;-87
2021/11/13 05:20:26;;;;;;;44.73;28.80;;;6.50;91.60;;;;;;5036111;28;20207;-87
2021/11/13 05:22:52;;;;;;;43.07;29.67;;;6.50;91.70;;;;;;5054049;28;20265;-87
2021/11/13 05:25:20;;;;;;;40.20;29.13;;;6.50;91.70;;;;;;5036015;28;20246;-87
2021/11/13 05:27:47;;;;;;;46.60;29.20;;;6.50;91.60;;;;;;5036006;28;20179;-87
2021/11/13 05:30:15;;;;;;;42.13;29.23;;;6.60;91.80;;;;;;5036061;28;20172;-88
2021/11/13 05:32:41;;;;;;;36.03;26.93;;;6.50;91.70;;;;;;5035059;28;20212;-87
2021/11/13 05:35:08;;;;;;;43.27;28.67;;;6.50;91.80;;;;;;5053734;28;20252;-87
2021/11/13 05:37:34;;;;;;;45.80;29.17;;;6.50;91.80;;;;;;5053967;28;20643;-87
2021/11/13 05:39:59;;;;;;;37.53;27.37;;;6.50;92.00;;;;;;5035882;28;20206;-87
2021/11/13 05:42:25;;;;;;;44.70;30.43;;;6.50;92.10;;;;;;5035712;28;20664;-87
2021/11/13 05:44:51;;;;;;;44.60;29.07;;;6.50;92.20;;;;;;5035698;28;20176;-87
2021/11/13 05:47:17;;;;;;;45.10;30.90;;;6.50;92.30;;;;;;5035584;28;20546;-87
2021/11/13 05:49:42;;;;;;;49.17;30.50;;;6.50;92.40;;;;;;5053505;28;20270;-87
2021/11/13 05:52:08;;;;;;;45.50;31.30;;;6.40;92.60;;;;;;5053370;28;20204;-87
2021/11/13 05:54:34;;;;;;;47.13;29.70;;;6.50;92.70;;;;;;5035445;28;20176;-87
2021/11/13 05:57:00;;;;;;;43.93;28.77;;;6.50;92.70;;;;;;5035555;28;20180;-87
2021/11/13 05:59:25;;;;;;;45.63;30.53;;;6.50;92.70;;;;;;5053853;28;20195;-88
2021/11/13 06:01:51;;;;;;;49.50;30.27;;;6.50;92.60;;;;;;5053255;28;20191;-87
2021/11/13 06:04:16;;;;;;;53.90;29.80;;;6.50;92.70;;;;;;5053256;28;20176;-87
2021/11/13 06:06:42;;;;;;;43.17;29.10;;;6.50;92.70;;;;;;5053286;28;20176;-87
2021/11/13 06:09:08;;;;;;;48.97;29.03;;;6.50;92.70;;;;;;5035524;28;20225;-87
2021/11/13 06:11:33;;;;;;;46.90;28.73;;;6.50;92.60;;;;;;5053092;28;20214;-88
2021/11/13 06:13:59;;;;;;;39.67;29.03;;;6.40;92.60;;;;;;5035253;28;20182;-87
2021/11/13 06:16:25;;;;;;;46.70;30.17;;;6.50;92.70;;;;;;5035304;28;20175;-87
2021/11/13 06:18:50;;;;;;;46.77;29.60;;;6.50;92.60;;;;;;5053205;28;20168;-88
2021/11/13 06:21:16;;;;;;;45.40;29.17;;;6.40;92.60;;;;;;5035169;28;20249;-87
2021/11/13 06:23:46;;;;;;;45.47;29.97;;;6.50;92.60;;;;;;5053037;28;20179;-87
2021/11/13 06:26:14;;;;;;;42.70;29.30;;;6.50;92.70;;;;;;5035145;28;20175;-87
2021/11/13 06:28:40;;;;;;;43.50;28.37;;;6.50;92.70;;;;;;5052944;28;20172;-87
2021/11/13 06:31:06;;;;;;;43.23;28.77;;;6.50;92.70;;;;;;5052884;28;20613;-87
2021/11/13 06:33:32;;;;;;;46.00;29.87;;;6.40;92.70;;;;;;5035022;28;20192;-87
2021/11/13 06:35:57;;;;;;;47.03;29.47;;;6.50;92.70;;;;;;5035225;28;20218;-88
2021/11/13 06:38:23;;;;;;;45.07;29.37;;;6.40;92.70;;;;;;5035121;28;20172;-87
2021/11/13 06:40:49;;;;;;;46.47;28.13;;;6.50;92.70;;;;;;5053021;28;20217;-87
2021/11/13 06:43:15;;;;;;;54.77;30.47;;;6.50;92.80;;;;;;5035977;28;20196;-87
2021/11/13 06:45:41;;;;;;;45.77;29.80;;;6.50;92.80;;;;;;5039130;28;20183;-86
2021/11/13 06:48:07;;;;;;;41.53;29.13;;;6.50;92.80;;;;;;5039619;28;20180;-88
2021/11/13 06:50:34;;;;;;;43.17;29.03;;;6.50;92.90;;;;;;5038851;28;20645;-87
2021/11/13 06:52:59;;;;;;;46.97;29.23;;;6.50;92.90;;;;;;5056510;28;20226;-87
2021/11/13 06:55:25;;;;;;;45.10;29.57;;;6.50;92.90;;;;;;5038858;28;20184;-86
2021/11/13 06:57:51;;;;;;;43.00;28.83;;;6.50;93.00;;;;;;5038731;28;20179;-87
2021/11/13 07:00:19;;;;;;;44.13;29.23;;;6.60;93.00;;;;;;5056608;28;20194;-87
2021/11/13 07:02:45;;;;;;;45.93;29.77;;;6.60;93.00;;;;;;5056567;28;20660;-87
2021/11/13 07:05:11;;;;;;;45.43;29.27;;;6.50;93.00;;;;;;5038741;28;20195;-87
2021/11/13 07:07:38;;;;;;;45.13;29.13;;;6.60;93.10;;;;;;5056878;28;20168;-87
2021/11/13 07:10:07;;;;;;;46.37;29.97;;;6.60;93.10;;;;;;5056333;28;20222;-87
2021/11/13 07:12:33;;;;;;;44.87;29.97;;;6.60;93.10;;;;;;5038562;28;20290;-87
2021/11/13 07:14:59;;;;;;;43.70;28.10;;;6.60;93.10;;;;;;5056284;28;20645;-87
2021/11/13 07:17:25;;;;;;;45.57;28.43;;;6.60;93.10;;;;;;5038425;28;20180;-86
2021/11/13 07:19:51;;;;;;;44.00;28.87;;;6.60;93.10;;;;;;5038123;28;20176;-87
2021/11/13 07:22:17;;;;;;;41.73;27.23;;;6.60;93.10;;;;;;5055926;28;20675;-87
2021/11/13 07:24:44;;;;;;;46.50;29.63;;;6.60;93.10;;;;;;5038198;28;20322;-88
2021/11/13 07:27:11;;;;;;;43.67;28.37;;;6.60;93.10;;;;;;5055875;28;20251;-87
2021/11/13 07:29:44;;;;;;;45.97;29.10;;;6.60;93.20;;;;;;5056082;28;20168;-87
2021/11/13 07:32:11;;;;;;;43.17;28.73;;;6.60;93.10;;;;;;5037931;28;20707;-87
2021/11/13 07:34:37;;;;;;;45.73;28.97;;;6.60;93.10;;;;;;5038088;28;20176;-87
2021/11/13 07:37:03;;;;;;;47.47;29.70;;;6.60;93.20;;;;;;5055782;28;20175;-87
2021/11/13 07:39:29;;;;;;;43.37;28.90;;;6.60;93.20;;;;;;5055790;28;20164;-87
2021/11/13 07:41:54;;;;;;;48.23;29.17;;;6.60;93.20;;;;;;5037879;28;20293;-87
2021/11/13 07:44:20;;;;;;;42.70;27.33;;;6.60;93.20;;;;;;5037858;28;20176;-88
2021/11/13 07:46:46;;;;;;;42.63;27.90;;;6.70;93.20;;;;;;5037991;28;20187;-88
2021/11/13 07:49:13;;;;;;;41.70;26.77;;;6.60;93.20;;;;;;5037794;28;20226;-88
2021/11/13 07:51:39;;;;;;;44.60;27.17;;;6.70;93.20;;;;;;5055390;28;20227;-88
2021/11/13 07:54:04;;;;;;;43.80;28.77;;;6.70;93.20;;;;;;5037657;28;20636;-88
2021/11/13 07:56:30;;;;;;;42.17;26.13;;;6.70;93.20;;;;;;5036920;28;20180;-86
2021/11/13 07:58:56;;;;;;;41.37;28.53;;;6.70;93.10;;;;;;5037773;28;20262;-88
2021/11/13 08:01:22;;;;;;;47.40;28.93;;;6.70;93.10;;;;;;5055235;28;20186;-88
2021/11/13 08:03:48;;;;;;;46.43;28.00;;;6.70;93.10;;;;;;5055358;28;20176;-88
2021/11/13 08:06:14;;;;;;;46.77;27.50;;;6.70;93.10;;;;;;5037363;28;20176;-88
2021/11/13 08:08:39;;;;;;;49.53;29.30;;;6.70;93.10;;;;;;5055513;28;20629;-88
2021/11/13 08:11:06;;;;;;;41.13;27.77;;;6.70;93.20;;;;;;5037319;28;20168;-88
2021/11/13 08:13:33;;;;;;;48.50;29.00;;;6.80;93.30;;;;;;5037195;28;20203;-88
2021/11/13 08:15:59;;;;;;;47.47;28.30;;;6.70;93.30;;;;;;5037218;28;20179;-87
2021/11/13 08:18:25;;;;;;;42.83;27.63;;;6.70;93.40;;;;;;5037303;28;20180;-87
2021/11/13 08:20:51;;;;;;;45.63;27.40;;;6.80;93.50;;;;;;5037213;28;20180;-87
2021/11/13 08:23:17;;;;;;;51.40;29.13;;;6.70;93.50;;;;;;5054781;28;20216;-87
2021/11/13 08:25:44;;;;;;;46.47;28.23;;;6.70;93.60;;;;;;5037067;28;20182;-88
2021/11/13 08:28:12;;;;;;;49.27;30.07;;;6.70;93.60;;;;;;5037021;28;20180;-88
2021/11/13 08:30:38;;;;;;;47.53;29.70;;;6.70;93.70;;;;;;5054764;28;20560;-87
2021/11/13 08:33:07;;;;;;;51.93;30.67;;;6.80;93.80;;;;;;5036770;28;20211;-87
2021/11/13 08:35:34;;;;;;;49.90;29.70;;;6.80;93.90;;;;;;5054741;28;20219;-87
2021/11/13 08:38:00;;;;;;;50.97;30.53;;;6.80;93.90;;;;;;5036893;28;20191;-87
2021/11/13 08:40:26;;;;;;;50.13;29.90;;;6.80;94.00;;;;;;5054569;28;20179;-87
2021/11/13 08:42:52;;;;;;;50.30;29.63;;;6.80;94.00;;;;;;5054521;28;20246;-87
2021/11/13 08:45:18;;;;;;;50.87;29.23;;;6.80;94.00;;;;;;5054609;28;20184;-87
2021/11/13 08:47:44;;;;;;;40.53;27.23;;;6.90;94.10;;;;;;5036571;28;20176;-87
2021/11/13 08:50:18;;;;;;;47.80;30.10;;;6.80;94.00;;;;;;5054414;28;20176;-87
2021/11/13 08:52:46;;;;;;;49.50;29.37;;;6.90;94.10;;;;;;5036626;28;20211;-87
2021/11/13 08:55:13;;;;;;;48.87;28.17;;;6.80;94.10;;;;;;5036589;28;20180;-87
2021/11/13 08:57:40;;;;;;;50.20;30.23;;;6.90;94.10;;;;;;5054292;28;20173;-87
2021/11/13 09:00:07;;;;;;;50.73;31.20;;;6.80;94.10;;;;;;5036390;28;20184;-87
2021/11/13 09:02:33;;;;;;;49.47;28.43;;;6.80;94.20;;;;;;5036264;28;20204;-87
2021/11/13 09:05:00;;;;;;;56.93;29.77;;;6.80;94.20;;;;;;5054162;28;20226;-87
2021/11/13 09:07:26;;;;;;;51.63;30.17;;;6.90;94.20;;;;;;5036252;28;20585;-87
2021/11/13 09:09:51;;;;;;;51.23;29.07;;;6.90;94.20;;;;;;5054116;28;20242;-87
2021/11/13 09:12:25;;;;;;;48.27;29.47;;;6.90;94.20;;;;;;5036265;28;20219;-87
2021/11/13 09:14:57;;;;;;;53.00;29.47;;;6.90;94.20;;;;;;5053976;28;20156;-87
2021/11/13 09:17:23;;;;;;;49.40;30.07;;;6.90;94.30;;;;;;5054290;28;20617;-87
2021/11/13 09:19:50;;;;;;;47.17;28.87;;;7.00;94.30;;;;;;5036037;28;20712;-87
2021/11/13 09:22:16;;;;;;;51.93;28.87;;;7.00;94.30;;;;;;5035793;28;20314;-87
2021/11/13 09:24:42;;;;;;;46.77;28.80;;;7.00;94.30;;;;;;5054047;28;20225;-87
2021/11/13 09:27:08;;;;;;;49.27;29.23;;;7.00;94.40;;;;;;5036020;28;20180;-87
2021/11/13 09:29:33;;;;;;;57.73;30.60;;;7.00;94.30;;;;;;5035967;28;20616;-87
2021/11/13 09:31:59;;;;;;;51.80;30.57;;;7.00;94.30;;;;;;5053576;28;20226;-87
2021/11/13 09:34:25;;;;;;;54.20;30.93;;;7.10;94.40;;;;;;5035712;28;20175;-87
2021/11/13 09:36:51;;;;;;;45.77;29.30;;;7.10;94.30;;;;;;5053531;28;20178;-87
2021/11/13 09:39:17;;;;;;;51.50;30.07;;;7.00;94.30;;;;;;5035708;28;20691;-86
2021/11/13 09:41:44;;;;;;;43.93;28.33;;;7.10;94.30;;;;;;5035697;28;20199;-87
2021/11/13 09:44:10;;;;;;;44.83;28.83;;;7.10;94.30;;;;;;5036944;28;20176;-87
2021/11/13 09:46:37;;;;;;;50.47;28.83;;;7.20;94.40;;;;;;5055699;28;20172;-88
2021/11/13 09:49:04;;;;;;;45.07;27.53;;;7.20;94.40;;;;;;5038659;28;20176;-88
2021/11/13 09:51:30;;;;;;;51.50;28.13;;;7.20;94.40;;;;;;5057289;28;20192;-88
2021/11/13 09:53:57;;;;;;;45.73;27.20;;;7.20;94.40;;;;;;5056547;28;20571;-88
2021/11/13 09:56:23;;;;;;;53.70;29.50;;;7.30;94.40;;;;;;5038984;28;20176;-87
2021/11/13 09:58:49;;;;;;;48.03;27.43;;;7.20;94.40;;;;;;5056551;28;20640;-88
2021/11/13 10:01:15;;;;;;;57.30;29.07;;;7.20;94.50;;;;;;5038553;28;20239;-88
2021/11/13 10:03:43;;;;;;;44.60;28.43;;;7.30;94.50;;;;;;5038358;28;20310;-88
2021/11/13 10:06:13;;;;;;;47.47;29.17;;;7.30;94.50;;;;;;5055845;28;20172;-88
2021/11/13 10:08:39;;;;;;;46.97;27.60;;;7.30;94.40;;;;;;5037674;28;20763;-88
2021/11/13 10:11:12;;;;;;;43.10;27.63;;;7.30;94.40;;;;;;5056291;28;20192;-88
2021/11/13 10:13:41;;;;;;;50.00;27.50;;;7.30;94.50;;;;;;5038333;28;20169;-88
2021/11/13 10:16:14;;;;;;;46.70;26.83;;;7.30;94.40;;;;;;5036942;28;20174;-88
2021/11/13 10:18:46;;;;;;;41.73;25.37;;;7.30;94.50;;;;;;5041362;28;20156;-88
2021/11/13 10:21:13;;;;;;;42.60;26.27;;;7.30;94.40;;;;;;5062582;28;20178;-88
2021/11/13 10:23:58;;;;;;;48.13;27.40;;;7.20;94.30;;;;;;5045039;28;20274;-88
2021/11/13 10:26:46;;;;;;;43.73;25.57;;;7.20;94.40;;;;;;5062024;28;20155;-88
2021/11/13 10:29:21;;;;;;;43.77;25.80;;;7.30;94.40;;;;;;5062080;28;20158;-88
2021/11/13 10:31:51;;;;;;;43.53;26.43;;;7.30;94.40;;;;;;5062366;28;20231;-88
2021/11/13 10:34:20;;;;;;;46.90;26.90;;;7.30;94.40;;;;;;5062575;28;20172;-88
2021/11/13 10:36:49;;;;;;;43.77;25.60;;;7.30;94.40;;;;;;5044362;28;20172;-89
2021/11/13 10:39:22;;;;;;;41.00;26.13;;;7.30;94.50;;;;;;5062267;28;20168;-87
2021/11/13 10:41:54;;;;;;;44.03;27.30;;;7.30;94.40;;;;;;5061939;28;20202;-88
2021/11/13 10:44:27;;;;;;;38.47;25.20;;;7.30;94.50;;;;;;5043795;28;20260;-87
2021/11/13 10:46:53;;;;;;;45.67;25.60;;;7.30;94.40;;;;;;5044830;28;20539;-87
2021/11/13 10:49:20;;;;;;;45.47;26.23;;;7.30;94.50;;;;;;5062163;28;20172;-88
2021/11/13 10:51:55;;;;;;;43.43;25.90;;;7.30;94.50;;;;;;5061902;28;20238;-88
2021/11/13 10:54:22;;;;;;;43.43;25.23;;;7.30;94.50;;;;;;5044692;28;20605;-87
2021/11/13 10:56:53;;;;;;;46.63;26.70;;;7.30;94.50;;;;;;5044374;28;20318;-88
2021/11/13 10:59:33;;;;;;;43.17;25.10;;;7.30;94.60;;;;;;5061348;28;20518;-87
2021/11/13 11:02:02;;;;;;;43.10;26.17;;;7.20;94.60;;;;;;5061179;28;20562;-87
2021/11/13 11:04:31;;;;;;;45.83;25.47;;;7.20;94.70;;;;;;5043595;28;20172;-88
2021/11/13 11:07:07;;;;;;;44.10;25.50;;;7.20;94.70;;;;;;5061965;28;20523;-88
2021/11/13 11:09:39;;;;;;;44.97;26.07;;;7.30;94.70;;;;;;5043578;28;20180;-88
2021/11/13 11:12:25;;;;;;;42.30;25.70;;;7.30;94.80;;;;;;5043398;28;20204;-88
2021/11/13 11:14:52;;;;;;;40.50;24.80;;;7.30;94.80;;;;;;5042375;28;20180;-88
2021/11/13 11:17:25;;;;;;;45.77;26.77;;;7.30;94.80;;;;;;5060446;28;20174;-88
2021/11/13 11:19:52;;;;;;;41.40;25.47;;;7.30;94.80;;;;;;5042879;28;20259;-88
2021/11/13 11:22:25;;;;;;;39.43;23.33;;;7.40;94.90;;;;;;5043088;28;20215;-89
2021/11/13 11:25:02;;;;;;;36.53;22.50;;;7.50;94.80;;;;;;5044586;28;20185;-89
2021/11/13 11:27:35;;;;;;;39.60;24.03;;;7.40;94.80;;;;;;5044343;28;20172;-89
2021/11/13 11:30:17;;;;;;;34.50;22.03;;;7.30;94.70;;;;;;5041847;28;20172;-89
2021/11/13 11:32:47;;;;;;;42.20;22.23;;;7.40;94.60;;;;;;5042678;28;20211;-89
2021/11/13 11:35:20;;;;;;;36.73;23.13;;;7.40;94.60;;;;;;5043130;28;20183;-88
2021/11/13 11:37:54;;;;;;;36.90;24.80;;;7.30;94.70;;;;;;5059604;28;20213;-88
2021/11/13 11:40:23;;;;;;;32.70;21.70;;;7.50;94.70;;;;;;5059274;28;20233;-87
2021/11/13 11:42:50;;;;;;;35.07;21.50;;;7.40;94.60;;;;;;5058894;28;20203;-89
2021/11/13 11:45:22;;;;;;;38.50;22.83;;;7.40;94.60;;;;;;5061681;28;20168;-88
2021/11/13 11:47:53;;;;;;;35.33;21.70;;;7.50;94.60;;;;;;5041160;28;20183;-88
2021/11/13 11:50:24;;;;;;;33.03;21.10;;;7.60;94.60;;;;;;5040585;28;20199;-88
2021/11/13 11:52:58;;;;;;;31.67;19.60;;;7.60;94.50;;;;;;5041007;28;20231;-88
2021/11/13 11:55:25;;;;;;;34.50;21.83;;;7.60;94.40;;;;;;5041072;28;20539;-88
2021/11/13 11:57:57;;;;;;;32.53;19.43;;;7.50;94.40;;;;;;5039810;28;20640;-88
2021/11/13 12:00:26;;;;;;;31.40;20.33;;;7.60;94.50;;;;;;5040715;28;20164;-88
2021/11/13 12:02:55;;;;;;;35.20;20.47;;;7.70;94.40;;;;;;5040416;28;20250;-88
2021/11/13 12:05:30;;;;;;;28.10;20.57;;;7.60;94.30;;;;;;5040669;28;20176;-88
2021/11/13 12:08:16;;;;;;;32.40;20.13;;;7.70;94.30;;;;;;5058466;28;20242;-89
2021/11/13 12:10:42;;;;;;;27.10;18.50;;;7.70;94.20;;;;;;5042088;28;20176;-88
2021/11/13 12:13:13;;;;;;;32.03;22.27;;;7.70;94.20;;;;;;5043599;28;20230;-87
2021/11/13 12:15:52;;;;;;;24.27;18.07;;;7.90;94.20;;;;;;5061655;28;20233;-88
2021/11/13 12:18:21;;;;;;;29.70;17.67;;;7.80;94.00;;;;;;5042182;28;20164;-89
2021/11/13 12:21:06;;;;;;;23.73;16.27;;;7.80;93.90;;;;;;5065816;28;20172;-87
2021/11/13 12:23:43;;;;;;;23.93;17.53;;;7.80;93.90;;;;;;5048594;28;20207;-88
2021/11/13 12:26:19;;;;;;;24.23;16.80;;;7.80;93.90;;;;;;5047600;28;20255;-87
2021/11/13 12:28:45;;;;;;;30.03;19.47;;;7.90;93.90;;;;;;5049054;28;20186;-89
2021/11/13 12:31:38;;;;;;;39.00;21.53;;;7.90;93.70;;;;;;5065789;28;20211;-89
2021/11/13 12:34:14;;;;;;;36.97;21.53;;;8.00;93.80;;;;;;5042479;28;20195;-89
2021/11/13 12:37:07;;;;;;;33.10;19.20;;;8.00;93.60;;;;;;5044889;28;20179;-87
2021/11/13 12:39:42;;;;;;;36.10;20.60;;;8.00;93.50;;;;;;5050408;28;20184;-87